Flight Track Log - Related Links

Times and Time Zones

All times are in EDT time to prevent confusion due to time zone crossing. See the JZA8745 flight status page for this flight to view local times or setup timezone preferences in your user account.

Time Position Orientation Groundspeed Altitude Reporting Facility
EDT Latitude Longitude Course Direction KTS MPH feet Rate Location/Type
Thu 02:58:26 PM 47.5333 -65.9667 244° Southwest 150 173 7,100  Level Moncton Center
Thu 02:59:26 PM 47.5167 -66.0333 250° West 150 173 8,800 1,600 Climbing Moncton Center
Thu 03:00:26 PM 47.5000 -66.0833 244° Southwest 150 173 10,300 1,350 Climbing Moncton Center
Thu 03:01:26 PM 47.4833 -66.1333 244° Southwest 150 173 11,500 1,200 Climbing Moncton Center
Thu 03:02:00 PM 47.3542 -66.4725 240° Southwest  Level FlightAware Approximate
Thu 03:02:26 PM 47.4500 -66.2000 234° Southwest 170 196 12,700  Level Moncton Center
Thu 03:03:00 PM 47.3260 -66.5556 244° Southwest  Level FlightAware Approximate
Thu 03:03:26 PM 47.4333 -66.2500 244° Southwest 170 196 13,700  Level Moncton Center
Thu 03:04:26 PM 47.4167 -66.3333 254° West 170 196 14,600 800 Climbing Moncton Center
Thu 03:05:26 PM 47.4000 -66.3833 244° Southwest 180 207 15,300 750 Climbing Moncton Center
Thu 03:06:26 PM 47.3667 -66.4500 234° Southwest 190 219 16,100 800 Climbing Moncton Center
Thu 03:07:26 PM 47.3500 -66.5167 250° West 190 219 16,900 750 Climbing Moncton Center
Thu 03:08:26 PM 47.3167 -66.6000 239° Southwest 190 219 17,600 650 Climbing Moncton Center
Thu 03:09:26 PM 47.3000 -66.6667 250° West 180 207 18,200 650 Climbing Moncton Center
Thu 03:10:26 PM 47.2667 -66.7167 226° Southwest 190 219 18,900 700 Climbing Moncton Center
Thu 03:11:26 PM 47.2333 -66.7833 234° Southwest 190 219 19,600 600 Climbing Moncton Center
Thu 03:12:26 PM 47.2167 -66.8667 254° West 180 207 20,100 550 Climbing Moncton Center
Thu 03:13:26 PM 47.1833 -66.9333 234° Southwest 190 219 20,700 550 Climbing Moncton Center
Thu 03:14:26 PM 47.1667 -67.0000 250° West 190 219 21,200 500 Climbing Moncton Center
Thu 03:15:26 PM 47.1500 -67.0833 254° West 190 219 21,700 400 Climbing Moncton Center
Thu 03:16:26 PM 47.1167 -67.1333 226° Southwest 200 230 22,000 350 Climbing Moncton Center
Thu 03:17:26 PM 47.1000 -67.2333 256° West 200 230 22,400 400 Climbing Moncton Center
Thu 03:18:26 PM 47.0667 -67.2667 214° Southwest 200 230 22,800 400 Climbing Moncton Center
Thu 03:19:26 PM 47.0500 -67.3500 254° West 190 219 23,200 298 Climbing Moncton Center
Thu 03:20:27 PM 47.0278 -67.4158 244° Southwest 203 234 23,400 298 Climbing Boston Center
Thu 03:21:27 PM 47.0014 -67.4853 241° Southwest 203 234 23,800 303 Climbing Boston Center
Thu 03:22:26 PM 46.9500 -67.5667 227° Southwest 200 230 24,000 101 Climbing Moncton Center
Thu 03:23:26 PM 46.9333 -67.6500 254° West 210 242 24,000  Level Moncton Center
Thu 03:24:26 PM 46.9000 -67.7333 240° Southwest 220 253 24,000  Level Moncton Center
Thu 03:25:27 PM 46.8850 -67.7964 251° West 224 258 24,000  Level Boston Center
Thu 03:26:27 PM 46.8606 -67.8622 242° Southwest 231 266 24,000  Level Boston Center
Thu 03:27:39 PM 46.8247 -67.9592 242° Southwest 236 272 24,000  Level Boston Center
Thu 03:28:39 PM 46.7814 -68.0778 242° Southwest 246 283 24,000  Level Boston Center
Thu 03:29:39 PM 46.7556 -68.1678 247° West 246 283 24,000  Level Boston Center
Thu 03:30:39 PM 46.7294 -68.2544 246° West 246 283 24,000  Level Boston Center
Thu 03:31:39 PM 46.7036 -68.3472 248° West 241 277 24,000  Level Boston Center
Thu 03:32:39 PM 46.6772 -68.4308 245° Southwest 236 272 24,000  Level Boston Center
Thu 03:33:39 PM 46.6511 -68.5203 247° West 236 272 24,000  Level Boston Center
Thu 03:34:39 PM 46.6269 -68.6067 248° West 236 272 24,000  Level Boston Center
Thu 03:35:39 PM 46.6006 -68.6900 245° Southwest 236 272 24,000  Level Boston Center
Thu 03:36:39 PM 46.5742 -68.7794 247° West 236 272 24,000  Level Boston Center
Thu 03:37:39 PM 46.5497 -68.8625 247° West 236 272 24,000  Level Boston Center
Thu 03:38:39 PM 46.5231 -68.9456 245° Southwest 236 272 24,000  Level Boston Center
Thu 03:39:39 PM 46.4983 -69.0314 247° West 236 272 24,000  Level Boston Center
Thu 03:40:39 PM 46.4717 -69.1175 246° West 236 272 24,000  Level Boston Center
Thu 03:41:39 PM 46.4467 -69.1914 244° Southwest 236 272 24,000  Level Boston Center
Thu 03:42:39 PM 46.4197 -69.2742 245° Southwest 236 272 24,000  Level Boston Center
Thu 03:43:39 PM 46.3989 -69.3444 247° West 236 272 24,000  Level Boston Center
Thu 03:44:39 PM 46.3683 -69.4486 247° West 236 272 24,000  Level Boston Center
Thu 03:45:39 PM 46.3431 -69.5281 245° Southwest 236 272 24,000  Level Boston Center
Thu 03:46:39 PM 46.3161 -69.6136 246° West 236 272 24,000  Level Boston Center
Thu 03:47:51 PM 46.2889 -69.6989 245° Southwest 236 272 24,000  Level Boston Center
Thu 03:48:51 PM 46.2581 -69.8025 247° West 236 272 24,000  Level Boston Center
Thu 03:49:51 PM 46.2308 -69.8878 245° Southwest 236 272 24,000  Level Boston Center
Thu 03:50:51 PM 46.2033 -69.9700 244° Southwest 236 272 24,000  Level Boston Center
Thu 03:51:51 PM 46.1761 -70.0581 246° West 236 272 24,000 -300 Level Boston Center
Thu 03:52:51 PM 46.1317 -70.1317 229° Southwest 241 277 23,400 -632 Descending Boston Center
Thu 03:53:26 PM 46.1000 -70.1833 229° Southwest 250 288 23,000 -462 Descending Moncton Center
Thu 03:53:43 PM 46.0667 -70.1833 180° South 260 299 23,000  Level Montreal Center
Thu 03:54:43 PM 46.0333 -70.2667 240° Southwest 250 288 23,000  Level Montreal Center
Thu 03:55:43 PM 45.9833 -70.3500 229° Southwest 240 276 23,000  Level Montreal Center
Thu 03:56:26 PM 45.9500 -70.4167 234° Southwest 250 288 23,000  Level Moncton Center
Thu 03:56:43 PM 45.9500 -70.4000 90° East 240 276 23,000  Level Montreal Center
Thu 03:57:43 PM 45.9000 -70.4667 223° Southwest 240 276 23,000  Level Montreal Center
Thu 03:58:43 PM 45.8500 -70.5500 229° Southwest 240 276 23,000  Level Montreal Center
Thu 03:59:26 PM 45.8333 -70.6500 257° West 240 276 23,000  Level Moncton Center
Thu 04:00:26 PM 45.8333 -70.7333 270° West 250 288 23,000  Level Moncton Center
Thu 04:00:43 PM 45.8167 -70.7500 215° Southwest 250 288 23,000  Level Montreal Center
Thu 04:01:43 PM 45.8167 -70.8500 270° West 250 288 23,000  Level Montreal Center
Thu 04:02:43 PM 45.8333 -70.9333 286° West 250 288 23,000  Level Montreal Center
Thu 04:03:43 PM 45.8333 -71.0667 270° West 250 288 23,000  Level Montreal Center
Thu 04:04:43 PM 45.8167 -71.1500 254° West 260 299 23,000  Level Montreal Center
Thu 04:05:43 PM 45.8167 -71.2500 270° West 260 299 23,000  Level Montreal Center
Thu 04:06:43 PM 45.8333 -71.3500 283° West 260 299 23,000  Level Montreal Center
Thu 04:07:43 PM 45.8167 -71.4667 258° West 260 299 23,000  Level Montreal Center
Thu 04:08:43 PM 45.8167 -71.5667 270° West 260 299 23,000  Level Montreal Center
Thu 04:09:43 PM 45.8000 -71.6667 257° West 260 299 23,000  Level Montreal Center
Thu 04:10:43 PM 45.8000 -71.7833 270° West 260 299 23,000  Level Montreal Center
Thu 04:11:43 PM 45.8000 -71.8833 270° West 260 299 23,000 -250 Level Montreal Center
Thu 04:12:43 PM 45.7833 -71.9833 257° West 260 299 22,500 -750 Descending Montreal Center
Thu 04:13:43 PM 45.7667 -72.1000 258° West 280 322 21,500 -1,100 Descending Montreal Center
Thu 04:14:43 PM 45.7833 -72.2167 282° West 300 345 20,300 -1,150 Descending Montreal Center
Thu 04:15:43 PM 45.7667 -72.3333 258° West 300 345 19,200 -1,350 Descending Montreal Center
Thu 04:16:43 PM 45.7500 -72.4667 260° West 300 345 17,600 -1,450 Descending Montreal Center
Thu 04:17:43 PM 45.7500 -72.5500 270° West 300 345 16,300 -1,350 Descending Montreal Center
Thu 04:18:43 PM 45.7500 -72.6833 270° West 300 345 14,900 -1,400 Descending Montreal Center
Thu 04:19:43 PM 45.7333 -72.8000 258° West 290 334 13,500 -1,400 Descending Montreal Center
Thu 04:20:43 PM 45.7167 -72.9167 258° West 280 322 12,100 -1,300 Descending Montreal Center
Thu 04:21:43 PM 45.7000 -73.0167 257° West 270 311 10,900 -1,250 Descending Montreal Center
Thu 04:22:43 PM 45.6833 -73.1167 257° West 270 311 9,600 -1,300 Descending Montreal Center
Thu 04:23:43 PM 45.6667 -73.2333 258° West 260 299 8,300 -1,350 Descending Montreal Center
Thu 04:24:43 PM 45.6667 -73.3333 270° West 260 299 6,900 -1,450 Descending Montreal Center
Thu 04:25:43 PM 45.6333 -73.4333 245° Southwest 260 299 5,400 -1,450 Descending Montreal Center
Thu 04:26:43 PM 45.6000 -73.5000 234° Southwest 240 276 4,000 -1,350 Descending Montreal Center
Thu 04:27:43 PM 45.5667 -73.6000 245° Southwest 240 276 2,700 -1,200 Descending Montreal Center
Thu 04:28:43 PM 45.5333 -73.6500 226° Southwest 190 219 1,600 -950 Descending Montreal Center
Thu 04:29:43 PM 45.5000 -73.7000 226° Southwest 160 184 800 -800 Descending Montreal Center

Login

Don't have an account? Register now (free) for customized features, flight alerts, and more!